sensor_id;sensor_type;location;lat;lon;timestamp;P1;durP1;ratioP1;P2;durP2;ratioP2
3979;SDS011;2004;52.452;13.120;2022-11-15T00:01:22;56.53;;;29.83;;
3979;SDS011;2004;52.452;13.120;2022-11-15T00:09:13;53.60;;;30.77;;
3979;SDS011;2004;52.452;13.120;2022-11-15T00:17:03;50.73;;;28.70;;
3979;SDS011;2004;52.452;13.120;2022-11-15T00:24:54;44.77;;;27.60;;
3979;SDS011;2004;52.452;13.120;2022-11-15T00:32:45;54.73;;;30.17;;
3979;SDS011;2004;52.452;13.120;2022-11-15T00:40:35;56.33;;;29.93;;
3979;SDS011;2004;52.452;13.120;2022-11-15T00:48:26;51.67;;;30.17;;
3979;SDS011;2004;52.452;13.120;2022-11-15T00:56:16;54.57;;;30.77;;
3979;SDS011;2004;52.452;13.120;2022-11-15T01:04:07;48.70;;;29.53;;
3979;SDS011;2004;52.452;13.120;2022-11-15T01:11:57;56.73;;;33.27;;
3979;SDS011;2004;52.452;13.120;2022-11-15T01:19:48;54.80;;;31.93;;
3979;SDS011;2004;52.452;13.120;2022-11-15T01:27:38;53.47;;;30.50;;
3979;SDS011;2004;52.452;13.120;2022-11-15T01:35:29;58.80;;;31.83;;
3979;SDS011;2004;52.452;13.120;2022-11-15T01:43:20;48.57;;;29.43;;
3979;SDS011;2004;52.452;13.120;2022-11-15T01:51:17;50.60;;;28.73;;
3979;SDS011;2004;52.452;13.120;2022-11-15T01:59:10;59.37;;;30.53;;
3979;SDS011;2004;52.452;13.120;2022-11-15T02:07:01;61.97;;;33.27;;
3979;SDS011;2004;52.452;13.120;2022-11-15T02:14:54;52.17;;;29.27;;
3979;SDS011;2004;52.452;13.120;2022-11-15T02:22:51;58.83;;;31.07;;
3979;SDS011;2004;52.452;13.120;2022-11-15T02:31:14;52.00;;;31.57;;
3979;SDS011;2004;52.452;13.120;2022-11-15T02:39:46;55.97;;;30.33;;
3979;SDS011;2004;52.452;13.120;2022-11-15T02:47:37;57.33;;;29.83;;
3979;SDS011;2004;52.452;13.120;2022-11-15T02:55:34;51.60;;;29.83;;
3979;SDS011;2004;52.452;13.120;2022-11-15T03:03:41;54.00;;;28.90;;
3979;SDS011;2004;52.452;13.120;2022-11-15T03:11:44;51.97;;;27.33;;
3979;SDS011;2004;52.452;13.120;2022-11-15T03:19:43;50.43;;;29.30;;
3979;SDS011;2004;52.452;13.120;2022-11-15T03:27:40;51.47;;;28.33;;
3979;SDS011;2004;52.452;13.120;2022-11-15T03:35:40;45.90;;;25.73;;
3979;SDS011;2004;52.452;13.120;2022-11-15T03:43:40;49.67;;;26.50;;
3979;SDS011;2004;52.452;13.120;2022-11-15T03:51:36;50.37;;;28.50;;
3979;SDS011;2004;52.452;13.120;2022-11-15T03:59:27;49.40;;;27.37;;
3979;SDS011;2004;52.452;13.120;2022-11-15T04:07:18;51.07;;;29.87;;
3979;SDS011;2004;52.452;13.120;2022-11-15T04:23:05;51.93;;;29.33;;
3979;SDS011;2004;52.452;13.120;2022-11-15T04:31:17;54.83;;;31.30;;
3979;SDS011;2004;52.452;13.120;2022-11-15T04:39:07;51.20;;;29.60;;
3979;SDS011;2004;52.452;13.120;2022-11-15T04:46:58;48.90;;;27.57;;
3979;SDS011;2004;52.452;13.120;2022-11-15T04:54:49;57.10;;;30.60;;
3979;SDS011;2004;52.452;13.120;2022-11-15T05:02:39;51.13;;;28.83;;
3979;SDS011;2004;52.452;13.120;2022-11-15T05:10:48;52.80;;;28.87;;
3979;SDS011;2004;52.452;13.120;2022-11-15T05:18:39;53.83;;;29.37;;
3979;SDS011;2004;52.452;13.120;2022-11-15T05:26:30;51.47;;;26.93;;
3979;SDS011;2004;52.452;13.120;2022-11-15T05:34:21;47.60;;;26.30;;
3979;SDS011;2004;52.452;13.120;2022-11-15T05:42:13;49.30;;;26.53;;
3979;SDS011;2004;52.452;13.120;2022-11-15T05:50:05;45.83;;;26.10;;
3979;SDS011;2004;52.452;13.120;2022-11-15T05:57:56;51.37;;;29.00;;
3979;SDS011;2004;52.452;13.120;2022-11-15T06:05:46;45.63;;;26.60;;
3979;SDS011;2004;52.452;13.120;2022-11-15T06:13:37;47.70;;;24.93;;
3979;SDS011;2004;52.452;13.120;2022-11-15T06:21:27;44.97;;;25.50;;
3979;SDS011;2004;52.452;13.120;2022-11-15T06:29:19;40.60;;;23.03;;
3979;SDS011;2004;52.452;13.120;2022-11-15T06:37:09;40.57;;;24.40;;
3979;SDS011;2004;52.452;13.120;2022-11-15T06:45:00;43.70;;;24.47;;
3979;SDS011;2004;52.452;13.120;2022-11-15T06:52:50;47.70;;;26.03;;
3979;SDS011;2004;52.452;13.120;2022-11-15T07:00:41;45.30;;;24.20;;
3979;SDS011;2004;52.452;13.120;2022-11-15T07:08:32;48.00;;;25.00;;
3979;SDS011;2004;52.452;13.120;2022-11-15T07:16:23;50.90;;;26.40;;
3979;SDS011;2004;52.452;13.120;2022-11-15T07:24:14;38.60;;;22.80;;
3979;SDS011;2004;52.452;13.120;2022-11-15T07:32:04;40.73;;;23.90;;
3979;SDS011;2004;52.452;13.120;2022-11-15T07:39:55;46.67;;;26.17;;
3979;SDS011;2004;52.452;13.120;2022-11-15T07:47:46;41.73;;;26.27;;
3979;SDS011;2004;52.452;13.120;2022-11-15T07:55:37;43.50;;;25.57;;
3979;SDS011;2004;52.452;13.120;2022-11-15T08:03:30;46.43;;;24.73;;
3979;SDS011;2004;52.452;13.120;2022-11-15T08:11:21;46.47;;;26.67;;
3979;SDS011;2004;52.452;13.120;2022-11-15T08:19:12;41.13;;;24.70;;
3979;SDS011;2004;52.452;13.120;2022-11-15T08:27:02;43.73;;;26.27;;
3979;SDS011;2004;52.452;13.120;2022-11-15T08:34:53;46.90;;;26.70;;
3979;SDS011;2004;52.452;13.120;2022-11-15T08:42:45;49.03;;;24.87;;
3979;SDS011;2004;52.452;13.120;2022-11-15T08:50:36;38.90;;;24.20;;
3979;SDS011;2004;52.452;13.120;2022-11-15T08:58:27;36.83;;;21.50;;
3979;SDS011;2004;52.452;13.120;2022-11-15T09:06:18;39.90;;;22.97;;
3979;SDS011;2004;52.452;13.120;2022-11-15T09:14:10;41.17;;;24.13;;
3979;SDS011;2004;52.452;13.120;2022-11-15T09:22:04;37.37;;;21.07;;
3979;SDS011;2004;52.452;13.120;2022-11-15T09:29:56;35.70;;;21.50;;
3979;SDS011;2004;52.452;13.120;2022-11-15T09:37:47;36.30;;;20.70;;
3979;SDS011;2004;52.452;13.120;2022-11-15T09:53:49;26.90;;;17.87;;
3979;SDS011;2004;52.452;13.120;2022-11-15T10:01:50;38.83;;;19.00;;
3979;SDS011;2004;52.452;13.120;2022-11-15T10:09:50;25.70;;;18.07;;
3979;SDS011;2004;52.452;13.120;2022-11-15T10:25:59;28.63;;;17.90;;
3979;SDS011;2004;52.452;13.120;2022-11-15T10:33:50;25.93;;;17.37;;
3979;SDS011;2004;52.452;13.120;2022-11-15T10:41:48;22.60;;;15.67;;
3979;SDS011;2004;52.452;13.120;2022-11-15T10:49:39;22.90;;;14.90;;
3979;SDS011;2004;52.452;13.120;2022-11-15T10:57:54;32.20;;;19.73;;
3979;SDS011;2004;52.452;13.120;2022-11-15T11:05:49;20.60;;;13.63;;
3979;SDS011;2004;52.452;13.120;2022-11-15T11:13:54;24.73;;;14.13;;
3979;SDS011;2004;52.452;13.120;2022-11-15T11:21:48;23.90;;;13.00;;
3979;SDS011;2004;52.452;13.120;2022-11-15T11:30:02;15.47;;;12.23;;
3979;SDS011;2004;52.452;13.120;2022-11-15T11:37:54;19.27;;;11.93;;
3979;SDS011;2004;52.452;13.120;2022-11-15T11:45:59;16.47;;;12.23;;
3979;SDS011;2004;52.452;13.120;2022-11-15T11:54:16;18.30;;;12.90;;
3979;SDS011;2004;52.452;13.120;2022-11-15T12:02:29;19.90;;;10.87;;
3979;SDS011;2004;52.452;13.120;2022-11-15T12:10:32;23.60;;;19.43;;
3979;SDS011;2004;52.452;13.120;2022-11-15T12:18:25;19.30;;;12.80;;
3979;SDS011;2004;52.452;13.120;2022-11-15T12:26:20;18.40;;;12.07;;
3979;SDS011;2004;52.452;13.120;2022-11-15T12:50:00;13.03;;;10.23;;
3979;SDS011;2004;52.452;13.120;2022-11-15T12:57:51;12.83;;;9.10;;
3979;SDS011;2004;52.452;13.120;2022-11-15T13:13:42;12.67;;;8.83;;
3979;SDS011;2004;52.452;13.120;2022-11-15T13:21:34;17.13;;;9.90;;
3979;SDS011;2004;52.452;13.120;2022-11-15T13:29:57;15.50;;;9.57;;
3979;SDS011;2004;52.452;13.120;2022-11-15T13:38:03;15.53;;;10.20;;
3979;SDS011;2004;52.452;13.120;2022-11-15T14:02:12;13.63;;;9.60;;
3979;SDS011;2004;52.452;13.120;2022-11-15T14:10:17;11.83;;;8.27;;
3979;SDS011;2004;52.452;13.120;2022-11-15T14:26:33;19.40;;;9.93;;
3979;SDS011;2004;52.452;13.120;2022-11-15T14:34:24;15.30;;;10.50;;
3979;SDS011;2004;52.452;13.120;2022-11-15T14:42:15;17.87;;;10.93;;
3979;SDS011;2004;52.452;13.120;2022-11-15T14:50:06;16.93;;;10.50;;
3979;SDS011;2004;52.452;13.120;2022-11-15T14:58:01;15.23;;;10.80;;
3979;SDS011;2004;52.452;13.120;2022-11-15T15:05:53;15.97;;;9.60;;
3979;SDS011;2004;52.452;13.120;2022-11-15T15:13:44;15.20;;;10.90;;
3979;SDS011;2004;52.452;13.120;2022-11-15T15:21:34;16.07;;;11.23;;
3979;SDS011;2004;52.452;13.120;2022-11-15T15:29:25;18.10;;;11.10;;
3979;SDS011;2004;52.452;13.120;2022-11-15T15:37:19;15.20;;;10.83;;
3979;SDS011;2004;52.452;13.120;2022-11-15T15:45:15;14.93;;;8.93;;
3979;SDS011;2004;52.452;13.120;2022-11-15T15:53:06;21.07;;;12.27;;
3979;SDS011;2004;52.452;13.120;2022-11-15T16:00:57;17.00;;;11.90;;
3979;SDS011;2004;52.452;13.120;2022-11-15T16:08:48;21.97;;;15.23;;
3979;SDS011;2004;52.452;13.120;2022-11-15T16:16:38;23.07;;;15.17;;
3979;SDS011;2004;52.452;13.120;2022-11-15T16:24:29;22.47;;;15.20;;
3979;SDS011;2004;52.452;13.120;2022-11-15T16:32:20;23.87;;;14.90;;
3979;SDS011;2004;52.452;13.120;2022-11-15T16:40:16;26.97;;;16.10;;
3979;SDS011;2004;52.452;13.120;2022-11-15T16:48:25;25.40;;;17.00;;
3979;SDS011;2004;52.452;13.120;2022-11-15T17:04:16;29.80;;;18.30;;
3979;SDS011;2004;52.452;13.120;2022-11-15T17:12:08;25.33;;;16.47;;
3979;SDS011;2004;52.452;13.120;2022-11-15T17:20:00;26.07;;;15.10;;
3979;SDS011;2004;52.452;13.120;2022-11-15T17:27:54;23.27;;;16.50;;
3979;SDS011;2004;52.452;13.120;2022-11-15T17:35:45;28.63;;;18.30;;
3979;SDS011;2004;52.452;13.120;2022-11-15T17:43:36;26.77;;;18.07;;
3979;SDS011;2004;52.452;13.120;2022-11-15T17:51:26;34.13;;;18.80;;
3979;SDS011;2004;52.452;13.120;2022-11-15T17:59:17;26.63;;;18.57;;
3979;SDS011;2004;52.452;13.120;2022-11-15T18:07:08;27.70;;;19.03;;
3979;SDS011;2004;52.452;13.120;2022-11-15T18:15:00;38.17;;;21.27;;
3979;SDS011;2004;52.452;13.120;2022-11-15T18:22:51;37.47;;;20.23;;
3979;SDS011;2004;52.452;13.120;2022-11-15T18:30:43;30.97;;;22.27;;
3979;SDS011;2004;52.452;13.120;2022-11-15T18:38:33;38.33;;;23.10;;
3979;SDS011;2004;52.452;13.120;2022-11-15T18:46:25;45.00;;;24.90;;
3979;SDS011;2004;52.452;13.120;2022-11-15T18:54:17;38.50;;;24.30;;
3979;SDS011;2004;52.452;13.120;2022-11-15T19:02:09;40.57;;;25.67;;
3979;SDS011;2004;52.452;13.120;2022-11-15T19:10:01;41.20;;;26.87;;
3979;SDS011;2004;52.452;13.120;2022-11-15T19:17:53;43.27;;;26.20;;
3979;SDS011;2004;52.452;13.120;2022-11-15T19:25:51;51.13;;;28.97;;
3979;SDS011;2004;52.452;13.120;2022-11-15T19:33:47;53.40;;;33.33;;
3979;SDS011;2004;52.452;13.120;2022-11-15T19:41:38;54.40;;;33.43;;
3979;SDS011;2004;52.452;13.120;2022-11-15T19:49:31;53.20;;;31.70;;
3979;SDS011;2004;52.452;13.120;2022-11-15T19:57:21;51.57;;;32.00;;
3979;SDS011;2004;52.452;13.120;2022-11-15T20:05:12;58.90;;;34.67;;
3979;SDS011;2004;52.452;13.120;2022-11-15T20:13:02;59.73;;;35.30;;
3979;SDS011;2004;52.452;13.120;2022-11-15T20:20:53;53.13;;;33.10;;
3979;SDS011;2004;52.452;13.120;2022-11-15T20:28:45;54.13;;;30.43;;
3979;SDS011;2004;52.452;13.120;2022-11-15T20:36:36;59.83;;;34.53;;
3979;SDS011;2004;52.452;13.120;2022-11-15T20:44:27;59.43;;;34.70;;
3979;SDS011;2004;52.452;13.120;2022-11-15T20:52:18;58.57;;;35.70;;
3979;SDS011;2004;52.452;13.120;2022-11-15T21:00:09;64.30;;;35.47;;
3979;SDS011;2004;52.452;13.120;2022-11-15T21:08:00;66.67;;;37.30;;
3979;SDS011;2004;52.452;13.120;2022-11-15T21:15:53;72.40;;;39.00;;
3979;SDS011;2004;52.452;13.120;2022-11-15T21:23:46;78.70;;;40.50;;
3979;SDS011;2004;52.452;13.120;2022-11-15T21:31:36;86.23;;;39.43;;
3979;SDS011;2004;52.452;13.120;2022-11-15T21:39:27;77.87;;;38.20;;
3979;SDS011;2004;52.452;13.120;2022-11-15T21:47:17;76.67;;;39.30;;
3979;SDS011;2004;52.452;13.120;2022-11-15T21:55:08;89.50;;;40.30;;
3979;SDS011;2004;52.452;13.120;2022-11-15T22:02:58;82.50;;;38.00;;
3979;SDS011;2004;52.452;13.120;2022-11-15T22:10:49;78.77;;;38.30;;
3979;SDS011;2004;52.452;13.120;2022-11-15T22:18:41;80.20;;;38.27;;
3979;SDS011;2004;52.452;13.120;2022-11-15T22:26:32;71.47;;;37.10;;
3979;SDS011;2004;52.452;13.120;2022-11-15T22:34:22;74.07;;;35.90;;
3979;SDS011;2004;52.452;13.120;2022-11-15T22:42:13;80.27;;;38.03;;
3979;SDS011;2004;52.452;13.120;2022-11-15T22:50:03;81.47;;;40.30;;
3979;SDS011;2004;52.452;13.120;2022-11-15T22:57:55;81.10;;;37.23;;
3979;SDS011;2004;52.452;13.120;2022-11-15T23:05:46;75.43;;;37.07;;
3979;SDS011;2004;52.452;13.120;2022-11-15T23:13:38;79.70;;;33.03;;
3979;SDS011;2004;52.452;13.120;2022-11-15T23:21:30;62.10;;;33.07;;
3979;SDS011;2004;52.452;13.120;2022-11-15T23:29:41;59.90;;;31.93;;
3979;SDS011;2004;52.452;13.120;2022-11-15T23:37:50;75.33;;;35.40;;
3979;SDS011;2004;52.452;13.120;2022-11-15T23:45:40;66.13;;;34.07;;
3979;SDS011;2004;52.452;13.120;2022-11-15T23:53:31;78.10;;;36.07;;
